createdAt,value
2022-10-08T00:04:25.285Z,100.00
2022-10-08T00:09:26.768Z,100.00
2022-10-08T00:14:28.268Z,100.00
2022-10-08T00:19:29.720Z,100.00
2022-10-08T00:24:31.886Z,100.00
2022-10-08T00:29:33.503Z,100.00
2022-10-08T00:34:35.108Z,100.00
2022-10-08T00:39:36.598Z,100.00
2022-10-08T00:44:54.665Z,100.00
2022-10-08T00:50:00.597Z,100.00
2022-10-08T00:55:06.510Z,100.00
2022-10-08T01:00:11.679Z,100.00
2022-10-08T01:05:16.857Z,100.00
2022-10-08T01:10:27.514Z,100.00
2022-10-08T01:15:28.912Z,100.00
2022-10-08T01:20:39.451Z,100.00
2022-10-08T01:25:56.658Z,100.00
2022-10-08T01:31:13.458Z,100.00
2022-10-08T01:36:18.045Z,100.00
2022-10-08T01:41:22.667Z,100.00
2022-10-08T01:46:28.058Z,100.00
2022-10-08T01:51:34.375Z,100.00
2022-10-08T01:56:40.023Z,100.00
2022-10-08T02:02:10.683Z,100.00
2022-10-08T02:07:38.463Z,100.00
2022-10-08T02:12:41.522Z,100.00
2022-10-08T02:17:50.371Z,100.00
2022-10-08T02:23:06.756Z,100.00
2022-10-08T02:28:25.918Z,100.00
2022-10-08T02:33:34.580Z,100.00
2022-10-08T02:38:44.833Z,100.00
2022-10-08T02:43:49.798Z,100.00
2022-10-08T02:49:08.230Z,100.00
2022-10-08T02:54:10.473Z,100.00
2022-10-08T02:59:12.872Z,100.00
2022-10-08T03:04:43.580Z,100.00
2022-10-08T03:09:46.854Z,100.00
2022-10-08T03:14:49.582Z,100.00
2022-10-08T03:19:51.706Z,100.00
2022-10-08T03:24:56.710Z,100.00
2022-10-08T03:29:58.405Z,100.00
2022-10-08T03:34:59.815Z,100.00
2022-10-08T03:40:02.114Z,100.00
2022-10-08T03:45:04.251Z,100.00
2022-10-08T03:50:06.203Z,100.00
2022-10-08T03:55:08.233Z,100.00
2022-10-08T04:00:10.228Z,100.00
2022-10-08T04:05:11.899Z,100.00
2022-10-08T04:10:13.429Z,100.00
2022-10-08T04:15:15.038Z,100.00
2022-10-08T04:20:16.679Z,100.00
2022-10-08T04:25:18.240Z,100.00
2022-10-08T04:30:19.660Z,100.00
2022-10-08T04:35:21.116Z,100.00
2022-10-08T04:40:22.590Z,100.00
2022-10-08T04:45:24.093Z,100.00
2022-10-08T04:50:25.608Z,100.00
2022-10-08T04:55:27.081Z,100.00
2022-10-08T05:00:28.766Z,100.00
2022-10-08T05:05:30.279Z,100.00
2022-10-08T05:10:31.722Z,100.00
2022-10-08T05:15:35.111Z,100.00
2022-10-08T05:20:37.039Z,100.00
2022-10-08T05:25:38.693Z,100.00
2022-10-08T05:30:40.120Z,100.00
2022-10-08T05:35:41.530Z,100.00
2022-10-08T05:40:42.947Z,100.00
2022-10-08T05:45:51.736Z,100.00
2022-10-08T05:50:53.552Z,100.00
2022-10-08T05:56:07.199Z,100.00
2022-10-08T06:01:21.302Z,100.00
2022-10-08T06:06:24.127Z,100.00
2022-10-08T06:11:30.031Z,100.00
2022-10-08T06:16:31.909Z,100.00
2022-10-08T06:21:34.641Z,100.00
2022-10-08T06:26:39.337Z,100.00
2022-10-08T06:31:41.249Z,100.00
2022-10-08T06:36:43.077Z,100.00
2022-10-08T06:41:44.745Z,100.00
2022-10-08T06:46:46.381Z,100.00
2022-10-08T06:51:47.855Z,100.00
2022-10-08T06:56:49.280Z,100.00
2022-10-08T07:01:50.688Z,100.00
2022-10-08T07:06:52.159Z,99.29
2022-10-08T07:11:53.644Z,98.41
2022-10-08T07:16:55.134Z,96.81
2022-10-08T07:22:01.022Z,96.36
2022-10-08T07:27:02.906Z,96.21
2022-10-08T07:32:04.391Z,95.25
2022-10-08T07:37:05.813Z,95.29
2022-10-08T07:42:07.318Z,94.49
2022-10-08T07:47:09.236Z,93.88
2022-10-08T07:52:10.684Z,92.70
2022-10-08T07:57:12.149Z,90.05
2022-10-08T08:02:13.673Z,87.53
2022-10-08T08:07:15.251Z,86.80
2022-10-08T08:12:16.831Z,85.13
2022-10-08T08:17:18.349Z,84.15
2022-10-08T08:22:19.845Z,82.24
2022-10-08T08:27:22.202Z,76.74
2022-10-08T08:32:28.220Z,70.26
2022-10-08T08:37:30.213Z,68.45
2022-10-08T08:42:56.816Z,67.59
2022-10-08T08:48:05.903Z,67.55
2022-10-08T08:53:10.169Z,68.55
2022-10-08T08:58:21.067Z,68.04
2022-10-08T09:03:28.539Z,67.05
2022-10-08T09:08:40.474Z,66.58
2022-10-08T09:13:52.578Z,66.97
2022-10-08T09:18:54.801Z,66.43
2022-10-08T09:23:56.560Z,65.16
2022-10-08T09:29:00.121Z,61.56
2022-10-08T09:34:13.120Z,54.83
2022-10-08T09:39:20.744Z,55.06
2022-10-08T09:44:23.199Z,54.22
2022-10-08T09:49:33.568Z,50.35
2022-10-08T09:54:41.574Z,49.42
2022-10-08T09:59:59.826Z,48.07
2022-10-08T10:05:04.020Z,47.44
2022-10-08T10:10:15.885Z,43.73
2022-10-08T10:15:31.359Z,46.36
2022-10-08T10:20:41.898Z,44.74
2022-10-08T10:25:48.557Z,43.79
2022-10-08T10:30:58.509Z,42.56
2022-10-08T10:36:04.710Z,43.29
2022-10-08T10:41:15.819Z,43.31
2022-10-08T10:46:47.005Z,44.28
2022-10-08T10:52:07.242Z,45.03
2022-10-08T10:57:19.760Z,44.20
2022-10-08T11:02:31.046Z,45.26
2022-10-08T11:07:53.533Z,45.73
2022-10-08T11:13:17.929Z,46.31
2022-10-08T11:18:34.624Z,47.83
2022-10-08T11:23:42.231Z,48.94
2022-10-08T11:29:00.488Z,49.67
2022-10-08T11:34:03.861Z,49.88
2022-10-08T11:39:41.695Z,48.62
2022-10-08T11:44:43.259Z,50.55
2022-10-08T11:49:53.114Z,51.13
2022-10-08T11:54:56.021Z,51.97
2022-10-08T12:00:24.123Z,52.29
2022-10-08T12:05:36.585Z,52.19
2022-10-08T12:10:39.975Z,52.02
2022-10-08T12:15:42.909Z,52.09
2022-10-08T12:20:44.700Z,52.12
2022-10-08T12:26:09.016Z,51.85
2022-10-08T12:31:33.395Z,51.52
2022-10-08T12:36:43.677Z,51.62
2022-10-08T12:42:02.044Z,51.90
2022-10-08T12:47:14.638Z,51.92
2022-10-08T12:52:20.912Z,51.29
2022-10-08T12:57:26.802Z,50.06
2022-10-08T13:02:34.898Z,49.70
2022-10-08T13:07:36.385Z,50.66
2022-10-08T13:12:37.816Z,50.80
2022-10-08T13:17:39.300Z,51.03
2022-10-08T13:22:40.812Z,51.71
2022-10-08T13:27:42.235Z,51.25
2022-10-08T13:32:43.707Z,51.84
2022-10-08T13:37:54.338Z,52.06
2022-10-08T13:42:58.817Z,52.95
2022-10-08T13:48:00.630Z,53.37
2022-10-08T13:53:02.149Z,53.46
2022-10-08T13:58:05.926Z,53.90
2022-10-08T14:03:08.179Z,53.91
2022-10-08T14:08:23.041Z,53.70
2022-10-08T14:13:25.395Z,53.76
2022-10-08T14:18:26.894Z,54.55
2022-10-08T14:23:28.319Z,55.33
2022-10-08T14:28:29.890Z,55.68
2022-10-08T14:33:31.480Z,55.85
2022-10-08T14:38:34.082Z,56.55
2022-10-08T14:43:35.818Z,56.80
2022-10-08T14:48:39.300Z,57.06
2022-10-08T14:53:41.832Z,57.18
2022-10-08T14:58:43.411Z,57.65
2022-10-08T15:03:45.924Z,57.90
2022-10-08T15:08:47.708Z,57.36
2022-10-08T15:13:49.191Z,57.08
2022-10-08T15:18:50.588Z,57.31
2022-10-08T15:23:54.959Z,57.19
2022-10-08T15:28:56.471Z,57.71
2022-10-08T15:33:59.820Z,58.19
2022-10-08T15:39:11.888Z,59.15
2022-10-08T15:44:24.498Z,59.80
2022-10-08T15:49:33.916Z,60.32
2022-10-08T15:54:39.755Z,60.56
2022-10-08T15:59:42.838Z,61.12
2022-10-08T16:04:45.868Z,61.97
2022-10-08T16:09:47.481Z,62.15
2022-10-08T16:14:49.009Z,62.51
2022-10-08T16:19:50.704Z,62.89
2022-10-08T16:24:52.254Z,63.52
2022-10-08T16:29:53.738Z,64.23
2022-10-08T16:34:55.196Z,65.17
2022-10-08T16:39:57.444Z,65.70
2022-10-08T16:44:58.950Z,65.93
2022-10-08T16:50:00.545Z,66.83
2022-10-08T16:55:02.066Z,67.29
2022-10-08T17:00:04.770Z,68.19
2022-10-08T17:05:07.481Z,69.27
2022-10-08T17:10:09.514Z,70.42
2022-10-08T17:15:11.386Z,71.52
2022-10-08T17:20:12.844Z,72.47
2022-10-08T17:25:14.279Z,72.84
2022-10-08T17:30:15.896Z,74.43
2022-10-08T17:35:17.363Z,74.81
2022-10-08T17:40:18.823Z,74.59
2022-10-08T17:45:22.136Z,74.77
2022-10-08T17:55:25.111Z,77.98
2022-10-08T18:00:27.308Z,78.31
2022-10-08T18:05:28.783Z,78.51
2022-10-08T18:10:30.239Z,78.80
2022-10-08T18:15:31.735Z,78.90
2022-10-08T18:20:33.237Z,79.78
2022-10-08T18:25:35.766Z,79.88
2022-10-08T18:30:37.244Z,80.25
2022-10-08T18:35:38.704Z,80.12
2022-10-08T18:40:40.177Z,80.29
2022-10-08T18:45:41.796Z,80.56
2022-10-08T18:50:43.263Z,82.08
2022-10-08T18:55:50.542Z,83.67
2022-10-08T19:00:52.039Z,83.49
2022-10-08T19:05:53.933Z,84.23
2022-10-08T19:10:55.451Z,85.73
2022-10-08T19:15:56.973Z,86.05
2022-10-08T19:21:06.700Z,85.83
2022-10-08T19:26:08.502Z,85.93
2022-10-08T19:31:24.206Z,86.28
2022-10-08T19:36:28.444Z,86.36
2022-10-08T19:41:31.284Z,87.15
2022-10-08T19:46:33.366Z,86.89
2022-10-08T19:51:35.444Z,87.29
2022-10-08T19:56:37.051Z,87.65
2022-10-08T20:01:39.889Z,87.85
2022-10-08T20:06:42.943Z,88.21
2022-10-08T20:11:45.776Z,88.40
2022-10-08T20:16:47.283Z,88.13
2022-10-08T20:21:50.600Z,88.49
2022-10-08T20:26:52.240Z,89.02
2022-10-08T20:31:55.350Z,89.24
2022-10-08T20:36:59.108Z,89.69
2022-10-08T20:42:00.661Z,90.10
2022-10-08T20:47:02.303Z,90.43
2022-10-08T20:52:04.885Z,89.77
2022-10-08T20:57:07.193Z,89.69
2022-10-08T21:02:10.391Z,89.99
2022-10-08T21:07:11.869Z,91.15
2022-10-08T21:12:13.300Z,91.20
2022-10-08T21:17:14.776Z,90.97
2022-10-08T21:22:16.215Z,91.79
2022-10-08T21:27:17.701Z,91.67
2022-10-08T21:32:19.406Z,91.71
2022-10-08T21:37:20.811Z,91.31
2022-10-08T21:42:22.251Z,92.05
2022-10-08T21:47:23.702Z,91.49
2022-10-08T21:52:25.218Z,92.25
2022-10-08T21:57:26.691Z,94.44
2022-10-08T22:02:28.200Z,99.23
2022-10-08T22:07:29.767Z,99.20
2022-10-08T22:12:31.245Z,100.00
2022-10-08T22:17:32.682Z,100.00
2022-10-08T22:22:34.144Z,100.00
2022-10-08T22:27:35.565Z,100.00
2022-10-08T22:32:37.016Z,100.00
2022-10-08T22:37:38.543Z,100.00
2022-10-08T22:42:40.211Z,100.00
2022-10-08T22:47:41.620Z,100.00
2022-10-08T22:52:43.761Z,100.00
2022-10-08T22:57:45.235Z,99.91
2022-10-08T23:02:46.865Z,99.62
2022-10-08T23:07:48.543Z,98.36
2022-10-08T23:12:52.120Z,98.04
2022-10-08T23:17:53.661Z,98.19
2022-10-08T23:22:55.108Z,100.00
2022-10-08T23:27:56.602Z,100.00
2022-10-08T23:32:58.057Z,100.00
2022-10-08T23:37:59.488Z,100.00
2022-10-08T23:43:00.916Z,100.00
2022-10-08T23:48:02.349Z,100.00
2022-10-08T23:53:04.296Z,100.00
2022-10-08T23:58:05.777Z,100.00
